Time;durP1;ratioP1;P1;durP2;ratioP2;P2;SDS_P1;SDS_P2;PMS_P1;PMS_P2;Temp;Humidity;BMP_temperature;BMP_pressure;BME280_temperature;BME280_humidity;BME280_pressure;Samples;Min_cycle;Max_cycle;Signal;HPM_P1;HPM_P2
2022/09/12 00:02:19;;;;;;;8.27;5.00;;;;;;;17.79;100.00;100037.28;5029905;28;20025;-74
2022/09/12 00:04:44;;;;;;;9.55;4.38;;;;;;;17.85;100.00;100048.59;5031411;28;20446;-74
2022/09/12 00:07:10;;;;;;;7.97;4.45;;;;;;;17.69;100.00;100051.16;5031099;28;20435;-73
2022/09/12 00:09:35;;;;;;;8.85;5.05;;;;;;;17.69;100.00;100056.38;5031075;28;20431;-72
2022/09/12 00:12:01;;;;;;;7.35;4.50;;;;;;;17.62;100.00;100015.50;5030863;28;20108;-76
2022/09/12 00:14:26;;;;;;;7.40;4.00;;;;;;;18.08;100.00;100049.47;5031151;28;20022;-75
2022/09/12 00:16:52;;;;;;;4.95;3.67;;;;;;;18.33;100.00;100040.72;5031341;28;20468;-77
2022/09/12 00:19:17;;;;;;;6.25;3.90;;;;;;;18.53;100.00;100052.03;5026699;28;20033;-74
2022/09/12 00:21:43;;;;;;;6.15;3.58;;;;;;;18.76;100.00;100038.00;5011069;28;20407;-78
2022/09/12 00:24:10;;;;;;;5.28;3.50;;;;;;;18.76;100.00;100023.16;5011260;28;20040;-74
2022/09/12 00:26:36;;;;;;;7.90;3.85;;;;;;;18.98;100.00;100028.38;5011072;28;20029;-78
2022/09/12 00:29:01;;;;;;;5.35;3.60;;;;;;;19.07;100.00;100010.00;5011311;28;20034;-75
2022/09/12 00:31:27;;;;;;;5.82;3.25;;;;;;;19.30;100.00;100026.44;5011100;28;20026;-79
2022/09/12 00:33:55;;;;;;;6.20;3.45;;;;;;;19.42;100.00;100020.28;5011107;28;20117;-76
2022/09/12 00:36:22;;;;;;;5.00;3.70;;;;;;;19.45;100.00;100020.25;5011122;28;20033;-79
2022/09/12 00:38:49;;;;;;;6.05;3.38;;;;;;;19.44;100.00;100024.63;5011126;28;20065;-77
2022/09/12 00:41:22;;;;;;;5.88;2.90;;;;;;;19.51;100.00;100026.28;5011089;28;20037;-78
2022/09/12 00:43:55;;;;;;;7.53;3.15;;;;;;;19.43;100.00;100020.25;5018050;28;20055;-79
2022/09/12 00:46:35;;;;;;;4.55;3.38;;;;;;;19.15;100.00;99983.81;5030839;28;20112;-82
2022/09/12 00:49:31;;;;;;;5.25;3.35;;;;;;;19.36;100.00;100026.41;5045989;28;20039;-74
2022/09/12 00:52:18;;;;;;;6.35;3.38;;;;;;;19.17;100.00;100031.75;5030261;28;20044;-71
2022/09/12 00:54:48;;;;;;;5.43;3.20;;;;;;;19.01;100.00;100014.41;5030580;28;20082;-71
2022/09/12 00:57:16;;;;;;;4.43;3.25;;;;;;;19.11;100.00;100015.22;5030202;28;20026;-73
2022/09/12 00:59:48;;;;;;;6.15;3.25;;;;;;;19.22;100.00;100019.50;5024787;28;20017;-72
2022/09/12 01:02:13;;;;;;;6.43;3.22;;;;;;;19.33;100.00;100008.13;5029545;28;20468;-74
2022/09/12 01:04:41;;;;;;;6.78;3.40;;;;;;;19.24;100.00;99981.13;5030109;28;20032;-75
2022/09/12 01:07:07;;;;;;;6.07;3.40;;;;;;;19.50;100.00;100002.75;5029883;28;20105;-73
2022/09/12 01:09:34;;;;;;;5.35;3.40;;;;;;;19.52;100.00;99995.75;5029936;28;20019;-72
2022/09/12 01:12:01;;;;;;;7.82;3.70;;;;;;;19.50;100.00;99976.56;5031174;28;20515;-78
2022/09/12 01:14:27;;;;;;;4.68;3.10;;;;;;;19.36;100.00;99959.22;5034280;28;20029;-79
2022/09/12 01:16:52;;;;;;;4.97;3.38;;;;;;;19.49;100.00;100001.88;5034358;28;20116;-77
2022/09/12 01:19:49;;;;;;;4.82;3.38;;;;;;;19.51;100.00;99997.50;5034861;28;20159;-73
2022/09/12 01:22:33;;;;;;;4.68;3.70;;;;;;;19.55;100.00;99998.34;5034288;28;20034;-74
2022/09/12 01:25:07;;;;;;;5.32;4.00;;;;;;;19.60;100.00;99999.19;5034230;28;20033;-74
2022/09/12 01:27:41;;;;;;;6.53;3.75;;;;;;;19.44;100.00;99969.66;5034316;28;20098;-79
2022/09/12 01:30:16;;;;;;;6.07;3.65;;;;;;;19.67;100.00;99995.63;5034312;28;20032;-74
2022/09/12 01:33:15;;;;;;;7.28;3.50;;;;;;;19.75;100.00;99997.31;5033972;28;20029;-74
2022/09/12 01:36:14;;;;;;;5.68;4.05;;;;;;;19.76;100.00;99992.06;5034015;28;20014;-75
2022/09/12 01:38:47;;;;;;;5.68;3.50;;;;;;;19.79;100.00;99984.19;5034074;28;20037;-76
2022/09/12 01:41:24;;;;;;;5.93;3.65;;;;;;;19.85;100.00;99985.91;5016377;28;20033;-73
2022/09/12 01:44:01;;;;;;;5.88;3.40;;;;;;;19.88;100.00;99992.00;5033796;28;20112;-76
2022/09/12 01:46:51;;;;;;;5.03;3.85;;;;;;;19.78;100.00;99966.72;5033890;28;20514;-73
2022/09/12 01:49:22;;;;;;;6.10;3.80;;;;;;;19.83;100.00;99975.44;5033742;28;20479;-74
2022/09/12 01:51:57;;;;;;;6.18;3.63;;;;;;;19.69;100.00;99938.03;5033865;28;20105;-71
2022/09/12 01:54:34;;;;;;;6.03;3.83;;;;;;;19.63;100.00;99966.88;5033742;28;20052;-77
2022/09/12 01:57:06;;;;;;;6.32;3.90;;;;;;;19.65;100.00;99972.97;5033676;28;20049;-75
2022/09/12 01:59:42;;;;;;;8.38;3.80;;;;;;;19.65;100.00;99967.72;5033819;28;20029;-73
2022/09/12 02:02:47;;;;;;;6.28;3.42;;;;;;;19.68;100.00;99967.72;5033781;28;20028;-76
2022/09/12 02:05:46;;;;;;;10.90;4.65;;;;;;;19.46;100.00;99960.00;4936996;29;20043;-72
2022/09/12 02:08:42;;;;;;;15.60;5.10;;;;;;;19.02;100.00;99941.13;4953155;29;20453;-75
2022/09/12 02:11:10;;;;;;;18.75;5.45;;;;;;;18.85;100.00;99937.72;4896038;29;20045;-72
2022/09/12 02:13:42;;;;;;;16.35;5.30;;;;;;;18.71;100.00;99935.19;4895913;29;20036;-72
2022/09/12 02:16:34;;;;;;;20.30;5.40;;;;;;;18.98;100.00;99965.59;4895810;29;20048;-72
2022/09/12 02:19:07;;;;;;;11.85;4.65;;;;;;;18.87;100.00;99938.59;4895744;29;20036;-74
2022/09/12 02:21:36;;;;;;;11.73;4.55;;;;;;;19.02;100.00;99958.59;4895873;29;20045;-71
2022/09/12 02:24:06;;;;;;;9.70;3.80;;;;;;;18.93;100.00;99959.50;4894895;29;20032;-74
2022/09/12 02:26:36;;;;;;;14.77;4.70;;;;;;;19.03;100.00;99965.56;4895627;29;20092;-75
2022/09/12 02:29:03;;;;;;;8.25;4.47;;;;;;;19.08;100.00;99964.63;4895710;29;20531;-74
2022/09/12 02:31:31;;;;;;;6.95;4.07;;;;;;;19.10;100.00;99969.84;4895532;29;20518;-80
2022/09/12 02:33:56;;;;;;;8.30;3.92;;;;;;;19.00;100.00;99971.66;4895594;29;20044;-73
2022/09/12 02:36:42;;;;;;;7.40;4.07;;;;;;;19.02;100.00;99971.66;4895694;29;20044;-75
2022/09/12 02:39:08;;;;;;;9.75;4.30;;;;;;;18.89;100.00;99949.88;4914326;29;20478;-72
2022/09/12 02:41:34;;;;;;;6.05;4.07;;;;;;;18.96;100.00;99949.00;4933200;29;20043;-74
2022/09/12 02:44:00;;;;;;;10.13;4.20;;;;;;;18.99;100.00;99976.91;4933534;29;20521;-74
2022/09/12 02:46:36;;;;;;;8.68;4.28;;;;;;;18.71;100.00;99982.25;4933331;29;20139;-72
2022/09/12 02:49:02;;;;;;;10.60;5.53;;;;;;;18.35;100.00;99986.72;5031771;28;20430;-73
2022/09/12 02:51:28;;;;;;;10.65;5.65;;;;;;;18.18;100.00;99989.38;5032798;28;20030;-73
2022/09/12 02:53:54;;;;;;;9.40;5.78;;;;;;;18.11;100.00;99993.75;5032742;28;20526;-75
2022/09/12 02:56:30;;;;;;;12.73;6.10;;;;;;;18.13;100.00;99994.63;5032496;28;20104;-75
2022/09/12 02:59:04;;;;;;;8.90;5.53;;;;;;;18.15;100.00;99989.38;5032906;28;20021;-74
2022/09/12 03:01:58;;;;;;;8.57;5.70;;;;;;;18.13;100.00;99959.78;5031625;28;20454;-73
2022/09/12 03:04:36;;;;;;;8.80;5.50;;;;;;;18.35;100.00;99977.13;5032422;28;20025;-75
2022/09/12 03:07:30;;;;;;;6.05;4.70;;;;;;;18.33;100.00;99975.41;5032186;28;20167;-75
2022/09/12 03:10:27;;;;;;;7.80;5.18;;;;;;;18.41;100.00;99971.03;5032266;28;20036;-76
2022/09/12 03:12:59;;;;;;;8.45;4.90;;;;;;;18.52;100.00;99981.47;5030331;28;20071;-71
2022/09/12 03:16:03;;;;;;;8.40;4.90;;;;;;;18.66;100.00;99976.16;5031205;28;20033;-77
2022/09/12 03:18:59;;;;;;;7.90;4.95;;;;;;;18.80;100.00;99979.56;4932651;29;20040;-71
2022/09/12 03:21:57;;;;;;;7.07;4.50;;;;;;;18.89;100.00;99969.09;4932666;29;20067;-71
2022/09/12 03:24:32;;;;;;;7.30;4.70;;;;;;;18.94;100.00;99962.97;4932673;29;20036;-75
2022/09/12 03:27:03;;;;;;;9.05;6.13;;;;;;;18.93;100.00;99964.75;4932544;29;20056;-72
2022/09/12 03:29:30;;;;;;;11.07;5.55;;;;;;;18.83;100.00;99955.16;4932395;29;20047;-71
2022/09/12 03:31:57;;;;;;;10.15;5.68;;;;;;;18.87;100.00;99959.50;4931801;29;20043;-77
2022/09/12 03:34:25;;;;;;;7.38;5.47;;;;;;;18.65;100.00;99932.59;4932484;29;20039;-76
2022/09/12 03:36:54;;;;;;;9.07;5.05;;;;;;;18.80;100.00;99963.88;4915174;29;20110;-83
2022/09/12 03:39:20;;;;;;;7.57;4.30;;;;;;;18.72;100.00;99958.69;4931547;29;20729;-82
2022/09/12 03:41:45;;;;;;;9.93;5.40;;;;;;;18.78;100.00;99957.81;4915368;29;20178;-84
2022/09/12 03:44:11;;;;;;;7.85;4.90;;;;;;;18.67;100.00;99968.31;4931386;29;20503;-83
2022/09/12 03:46:36;;;;;;;7.57;4.97;;;;;;;18.66;100.00;99956.13;4931777;29;20545;-82
2022/09/12 03:49:01;;;;;;;11.60;4.97;;;;;;;18.61;100.00;99955.25;4931847;29;20139;-81
2022/09/12 03:51:27;;;;;;;7.75;4.53;;;;;;;18.67;100.00;99970.06;4931422;29;20036;-84
2022/09/12 03:53:53;;;;;;;8.55;4.55;;;;;;;18.70;100.00;99956.97;4931826;29;20043;-84
2022/09/12 03:56:18;;;;;;;11.18;5.13;;;;;;;18.41;100.00;99918.75;5025639;28;20454;-81
2022/09/12 03:58:44;;;;;;;7.13;4.97;;;;;;;18.64;100.00;99947.44;5031209;28;20556;-81
2022/09/12 04:01:12;;;;;;;9.10;4.85;;;;;;;18.64;100.00;99955.28;5031344;28;20033;-81
2022/09/12 04:03:39;;;;;;;10.07;4.72;;;;;;;18.59;100.00;99938.72;5013434;28;20026;-81
2022/09/12 04:06:05;;;;;;;7.00;4.70;;;;;;;18.45;100.00;99938.78;5028602;28;20060;-83
2022/09/12 04:08:30;;;;;;;9.05;4.72;;;;;;;18.72;100.00;99976.16;5015769;28;20475;-76
2022/09/12 04:11:08;;;;;;;8.30;4.82;;;;;;;18.65;100.00;99966.59;5028320;28;20040;-83
2022/09/12 04:13:35;;;;;;;6.70;4.45;;;;;;;18.67;100.00;99970.06;5012849;28;20105;-81
2022/09/12 04:16:01;;;;;;;6.15;4.75;;;;;;;18.73;100.00;99978.75;5013281;28;20072;-81
2022/09/12 04:18:27;;;;;;;11.05;5.90;;;;;;;18.78;100.00;99980.47;5029369;28;20513;-82
2022/09/12 04:20:53;;;;;;;10.07;5.18;;;;;;;18.66;100.00;99981.41;4997644;28;20530;-83
2022/09/12 04:23:18;;;;;;;11.77;5.10;;;;;;;18.61;100.00;99980.56;4993739;28;20038;-88
2022/09/12 04:25:51;;;;;;;7.13;5.30;;;;;;;18.62;100.00;99979.66;5011401;28;20468;-83
2022/09/12 04:28:17;;;;;;;8.98;5.65;;;;;;;18.58;100.00;99997.13;4993603;28;20065;-81
2022/09/12 04:30:42;;;;;;;12.73;6.43;;;;;;;18.48;100.00;100004.13;4993829;28;20076;-81
2022/09/12 04:33:08;;;;;;;8.30;6.38;;;;;;;18.44;100.00;99981.47;5011123;28;20079;-84
2022/09/12 04:35:34;;;;;;;12.63;7.13;;;;;;;18.54;100.00;100003.22;5011060;28;20065;-82
2022/09/12 04:38:00;;;;;;;11.82;7.50;;;;;;;18.50;100.00;100001.50;5011119;28;20480;-82
2022/09/12 04:40:27;;;;;;;11.95;7.30;;;;;;;18.47;100.00;99991.91;5010894;28;20045;-82
2022/09/12 04:42:54;;;;;;;12.07;7.43;;;;;;;18.54;100.00;100004.09;5030531;28;20128;-84
2022/09/12 04:45:21;;;;;;;11.32;9.77;;;;;;;18.46;100.00;99984.94;5031219;28;20033;-82
2022/09/12 04:47:46;;;;;;;12.90;9.93;;;;;;;18.34;100.00;100001.53;5030274;28;20021;-84
2022/09/12 04:50:12;;;;;;;17.70;10.80;;;;;;;18.16;100.00;100005.06;5012841;28;20036;-81
2022/09/12 04:52:37;;;;;;;12.77;11.18;;;;;;;18.15;100.00;100005.06;5030664;28;20025;-80
2022/09/12 04:55:03;;;;;;;15.60;11.80;;;;;;;17.99;100.00;100001.59;5012866;28;20037;-80
2022/09/12 04:57:28;;;;;;;12.80;11.48;;;;;;;18.15;100.00;100005.06;5012778;28;20061;-81
2022/09/12 04:59:53;;;;;;;14.52;11.35;;;;;;;18.18;100.00;100008.53;5030568;28;20029;-84
2022/09/12 05:02:19;;;;;;;16.30;12.05;;;;;;;18.25;100.00;100022.47;5030608;28;20033;-84
2022/09/12 05:04:45;;;;;;;13.10;11.57;;;;;;;18.18;100.00;100003.31;5030731;28;20461;-84
2022/09/12 05:07:11;;;;;;;13.63;12.23;;;;;;;18.33;100.00;100014.59;5012796;28;20032;-80
2022/09/12 05:09:36;;;;;;;14.68;13.15;;;;;;;18.45;100.00;100013.72;5030399;28;20029;-81
2022/09/12 05:12:04;;;;;;;16.80;13.23;;;;;;;18.52;100.00;100012.81;5030157;28;20021;-81
2022/09/12 05:14:33;;;;;;;16.10;13.20;;;;;;;18.38;100.00;100018.06;5012893;28;20052;-81
2022/09/12 05:17:00;;;;;;;15.07;13.48;;;;;;;18.22;100.00;100017.25;5030347;28;20017;-84
2022/09/12 05:19:26;;;;;;;15.40;13.48;;;;;;;18.13;100.00;100012.03;5030389;28;20484;-80
2022/09/12 05:21:51;;;;;;;15.73;14.15;;;;;;;18.16;100.00;100002.44;5030351;28;20033;-84
2022/09/12 05:24:17;;;;;;;17.55;12.43;;;;;;;18.04;100.00;100018.13;5030377;28;20037;-82
2022/09/12 05:26:42;;;;;;;17.95;13.60;;;;;;;18.12;100.00;100000.72;5012465;28;20022;-81
2022/09/12 05:29:08;;;;;;;14.88;12.60;;;;;;;18.20;100.00;100000.69;5025638;28;20029;-80
2022/09/12 05:31:34;;;;;;;14.70;13.30;;;;;;;18.26;100.00;99969.34;5009502;28;20100;-81
2022/09/12 05:33:59;;;;;;;15.80;12.63;;;;;;;18.31;100.00;99969.31;5030286;28;20061;-80
2022/09/12 05:36:28;;;;;;;13.07;11.63;;;;;;;18.39;100.00;99993.69;5028118;28;20036;-80
2022/09/12 05:38:54;;;;;;;13.68;11.02;;;;;;;18.33;100.00;100006.75;5021137;28;20038;-81
2022/09/12 05:41:23;;;;;;;14.57;9.70;;;;;;;18.27;100.00;99987.59;5028934;28;20658;-79
2022/09/12 05:43:52;;;;;;;10.82;9.73;;;;;;;18.35;100.00;100005.03;5030185;28;20072;-70
2022/09/12 05:46:20;;;;;;;9.73;8.63;;;;;;;18.20;100.00;100000.69;5028565;28;20064;-78
2022/09/12 05:48:47;;;;;;;10.85;9.75;;;;;;;18.26;100.00;100001.53;5027434;28;20048;-82
2022/09/12 05:51:19;;;;;;;11.63;10.00;;;;;;;18.47;100.00;100001.50;5027568;28;20434;-82
2022/09/12 05:53:51;;;;;;;10.02;9.02;;;;;;;18.24;100.00;99969.34;5012112;28;20037;-79
2022/09/12 05:56:20;;;;;;;11.77;7.93;;;;;;;18.22;100.00;100006.81;5027714;28;20030;-80
2022/09/12 05:58:51;;;;;;;9.35;7.93;;;;;;;18.34;100.00;100013.72;5030175;28;20028;-80
2022/09/12 06:01:18;;;;;;;9.00;8.10;;;;;;;18.23;100.00;100024.19;5033076;28;20039;-80
2022/09/12 06:03:49;;;;;;;10.65;8.60;;;;;;;18.20;100.00;100005.94;5032693;28;20064;-81
2022/09/12 06:06:20;;;;;;;10.30;8.70;;;;;;;18.31;100.00;100013.75;5032909;28;20021;-78
2022/09/12 06:08:48;;;;;;;9.55;8.63;;;;;;;18.30;100.00;100015.47;5030118;28;20099;-79
2022/09/12 06:11:17;;;;;;;11.15;8.75;;;;;;;18.22;100.00;100010.28;5030013;28;20057;-79
2022/09/12 06:13:43;;;;;;;;;;;;;;;18.45;100.00;100021.56;5033485;28;20487;-80
2022/09/12 06:16:17;;;;;;;10.00;9.02;;;;;;;18.51;100.00;99998.00;5022551;28;19921;-78
2022/09/12 06:19:06;;;;;;;11.32;8.55;;;;;;;18.48;100.00;100016.31;4997586;28;20037;-72
2022/09/12 06:21:33;;;;;;;12.10;8.85;;;;;;;18.49;100.00;100020.66;5013100;28;20034;-74
2022/09/12 06:23:59;;;;;;;10.25;9.13;;;;;;;18.48;100.00;100013.69;5020183;28;20044;-78
2022/09/12 06:26:25;;;;;;;10.38;8.48;;;;;;;18.33;100.00;99989.34;5012622;28;20479;-73
2022/09/12 06:28:52;;;;;;;11.73;8.57;;;;;;;18.39;100.00;99988.44;5013670;28;20036;-76
2022/09/12 06:31:21;;;;;;;10.23;8.35;;;;;;;18.30;100.00;99973.66;5023105;28;20139;-72
2022/09/12 06:33:49;;;;;;;10.00;8.60;;;;;;;18.74;100.00;100018.81;5021378;28;20038;-79
2022/09/12 06:36:17;;;;;;;8.90;8.02;;;;;;;18.73;100.00;100030.19;5018183;28;20107;-79
2022/09/12 06:38:45;;;;;;;8.27;7.38;;;;;;;18.69;100.00;100031.94;5032896;28;20033;-81
2022/09/12 06:41:11;;;;;;;10.10;7.28;;;;;;;18.73;100.00;100030.19;5015008;28;20052;-75
2022/09/12 06:43:38;;;;;;;10.32;8.02;;;;;;;18.75;100.00;100034.53;5031767;28;20037;-79
2022/09/12 06:46:04;;;;;;;10.20;8.20;;;;;;;18.98;100.00;100028.38;5013392;28;20087;-78
2022/09/12 06:48:29;;;;;;;9.30;8.07;;;;;;;18.91;100.00;100043.19;5030332;28;20754;-77
2022/09/12 06:51:01;;;;;;;9.50;7.20;;;;;;;19.03;100.00;100031.81;5030069;28;20392;-78
2022/09/12 06:53:28;;;;;;;8.95;7.22;;;;;;;19.06;100.00;100003.00;5031949;28;20024;-80
2022/09/12 06:56:01;;;;;;;12.57;8.05;;;;;;;19.31;100.00;100025.56;5030241;28;20044;-78
2022/09/12 06:58:28;;;;;;;11.27;7.00;;;;;;;19.43;100.00;100038.59;5027812;28;20404;-77
2022/09/12 07:01:06;;;;;;;13.13;7.03;;;;;;;19.63;100.00;100037.59;5024491;28;20057;-77
2022/09/12 07:03:32;;;;;;;12.00;6.60;;;;;;;19.63;100.00;100045.44;5023788;28;20037;-74
2022/09/12 07:06:05;;;;;;;8.80;6.15;;;;;;;19.58;100.00;100032.38;5029353;28;20029;-74
2022/09/12 07:08:32;;;;;;;6.32;5.50;;;;;;;19.78;100.00;100037.47;5030616;28;20578;-73
2022/09/12 07:11:06;;;;;;;8.38;5.57;;;;;;;19.91;100.00;100037.38;5029055;28;20025;-77
2022/09/12 07:13:32;;;;;;;7.85;5.50;;;;;;;19.73;100.00;100026.16;5031281;28;20065;-74
2022/09/12 07:16:00;;;;;;;7.55;5.72;;;;;;;19.88;100.00;100039.13;5031717;28;20527;-76
2022/09/12 07:18:26;;;;;;;7.22;4.65;;;;;;;20.02;100.00;100040.78;5031458;28;20034;-75
2022/09/12 07:20:52;;;;;;;5.22;3.78;;;;;;;19.84;100.00;100034.81;5031801;28;20036;-74
2022/09/12 07:23:17;;;;;;;5.30;4.75;;;;;;;19.97;100.00;100046.06;5029311;28;20041;-78
2022/09/12 07:25:43;;;;;;;5.55;4.22;;;;;;;19.81;100.00;100006.00;5031437;28;20594;-75
2022/09/12 07:28:09;;;;;;;5.80;5.20;;;;;;;20.11;100.00;100043.34;5013898;28;20458;-72
2022/09/12 07:30:36;;;;;;;5.85;4.03;;;;;;;19.79;100.00;99984.19;5031567;28;20017;-74
2022/09/12 07:33:01;;;;;;;8.57;3.95;;;;;;;20.16;99.94;100035.41;5031504;28;20026;-77
2022/09/12 07:35:27;;;;;;;5.22;4.00;;;;;;;20.45;99.67;100036.88;5028533;28;20013;-78
2022/09/12 07:37:53;;;;;;;4.07;3.25;;;;;;;20.32;95.57;100012.53;5031150;28;20403;-74
2022/09/12 07:40:18;;;;;;;5.05;3.10;;;;;;;20.51;96.15;100021.94;5031312;28;20045;-75
2022/09/12 07:42:43;;;;;;;3.47;2.35;;;;;;;20.87;89.67;100034.66;5031412;28;20025;-78
2022/09/12 07:45:10;;;;;;;5.30;2.78;;;;;;;21.03;90.54;100024.00;5031237;28;20427;-75
2022/09/12 07:47:35;;;;;;;3.38;2.97;;;;;;;21.23;93.78;100021.94;5031349;28;20156;-79
2022/09/12 07:50:01;;;;;;;4.18;2.60;;;;;;;20.90;89.68;99994.41;5031085;28;20105;-70
2022/09/12 07:52:26;;;;;;;5.55;2.28;;;;;;;20.95;87.05;100026.72;5030900;28;20029;-78
2022/09/12 07:54:52;;;;;;;5.68;2.40;;;;;;;21.08;84.55;100016.91;5031287;28;20032;-74
2022/09/12 07:57:17;;;;;;;4.35;2.50;;;;;;;21.31;87.84;100024.47;5031044;28;20021;-78
2022/09/12 07:59:43;;;;;;;4.22;2.78;;;;;;;21.43;91.68;100021.69;5031274;28;20030;-78
2022/09/12 08:02:14;;;;;;;3.92;2.50;;;;;;;21.31;84.37;100003.47;5031217;28;20021;-73
2022/09/12 08:04:43;;;;;;;6.10;3.00;;;;;;;21.13;87.83;100020.34;5031151;28;20088;-74
2022/09/12 08:07:08;;;;;;;4.05;2.60;;;;;;;21.40;90.52;100024.31;5028475;28;20079;-70
2022/09/12 08:09:34;;;;;;;4.15;2.20;;;;;;;21.49;86.10;100012.81;5030929;28;20021;-76
2022/09/12 08:12:00;;;;;;;3.58;2.45;;;;;;;21.55;86.66;100023.22;5030974;28;20033;-76
2022/09/12 08:14:26;;;;;;;3.17;2.00;;;;;;;21.29;86.15;99985.09;5030863;28;20022;-77
2022/09/12 08:16:52;;;;;;;3.42;2.17;;;;;;;21.54;83.39;100028.50;5013217;28;20479;-78
2022/09/12 08:19:17;;;;;;;3.83;2.22;;;;;;;21.75;86.35;100011.56;5030563;28;20079;-79
2022/09/12 08:21:43;;;;;;;3.38;1.80;;;;;;;21.72;80.42;100030.00;5029414;28;20088;-75
2022/09/12 08:24:11;;;;;;;4.15;1.88;;;;;;;21.71;82.28;100010.75;5010821;28;20033;-78
2022/09/12 08:26:36;;;;;;;4.88;2.22;;;;;;;22.00;87.17;100011.16;5013108;28;20030;-80
2022/09/12 08:29:03;;;;;;;3.55;2.28;;;;;;;22.15;84.87;100018.75;5012027;28;20048;-77
2022/09/12 08:31:35;;;;;;;3.00;2.13;;;;;;;22.20;83.66;100023.94;5030657;28;20021;-77
2022/09/12 08:34:00;;;;;;;3.72;2.10;;;;;;;22.08;80.39;99999.63;5030085;28;20026;-77
2022/09/12 08:36:28;;;;;;;3.20;1.60;;;;;;;22.28;79.60;100017.66;5030486;28;20028;-75
2022/09/12 08:39:05;;;;;;;3.03;2.00;;;;;;;22.15;79.68;100018.75;5030172;28;20112;-75
2022/09/12 08:41:36;;;;;;;2.67;1.80;;;;;;;22.28;78.17;100004.50;5029179;28;20029;-74
2022/09/12 08:44:27;;;;;;;2.47;1.90;;;;;;;22.45;79.07;100012.09;5028900;28;20033;-81
2022/09/12 08:47:11;;;;;;;4.45;2.00;;;;;;;22.62;77.19;100006.50;5030951;28;20041;-76
2022/09/12 08:50:01;;;;;;;2.85;2.10;;;;;;;22.76;78.52;100000.94;5030659;28;20412;-80
2022/09/12 08:52:26;;;;;;;;;;;;;;;22.89;77.45;99998.03;5031072;28;20087;-75
2022/09/12 08:54:55;;;;;;;2.25;2.00;;;;;;;22.70;77.00;99966.84;5031028;28;19909;-75
2022/09/12 08:57:21;;;;;;;4.07;1.93;;;;;;;23.08;77.57;99980.09;4996412;28;20129;-80
2022/09/12 08:59:47;;;;;;;5.38;2.17;;;;;;;23.04;77.99;99981.06;5031024;28;20080;-78
2022/09/12 09:02:31;;;;;;;2.42;1.70;;;;;;;23.23;78.58;99984.19;5030449;28;20431;-77
2022/09/12 09:05:03;;;;;;;3.30;1.90;;;;;;;23.10;75.59;99984.44;5030520;28;20030;-76
2022/09/12 09:08:01;;;;;;;2.40;1.73;;;;;;;22.93;77.80;99970.78;5030479;28;20056;-81
2022/09/12 09:10:32;;;;;;;4.03;1.80;;;;;;;22.95;77.33;99979.50;5030485;28;20396;-77
2022/09/12 09:14:46;;;;;;;2.38;1.80;;;;;;;23.22;75.39;99977.19;5030427;28;20026;-77
2022/09/12 09:16:17;;;;;;;1.67;1.58;;;;;;;23.38;73.69;99967.16;5030183;28;20040;-77
2022/09/12 09:18:46;;;;;;;4.13;1.93;;;;;;;23.19;79.61;99950.91;5030519;28;20033;-77
2022/09/12 09:21:30;;;;;;;3.72;1.75;;;;;;;23.32;74.10;99946.22;5012719;28;20029;-78
2022/09/12 09:24:18;;;;;;;6.22;1.83;;;;;;;23.07;73.06;99970.47;5029307;28;20029;-74
2022/09/12 09:27:04;;;;;;;2.42;1.48;;;;;;;23.08;72.51;99965.16;5029246;28;20029;-77
2022/09/12 09:29:40;;;;;;;3.38;1.42;;;;;;;23.21;72.84;99946.47;5023984;28;20093;-74
2022/09/12 09:32:16;;;;;;;4.45;1.60;;;;;;;23.49;71.35;99932.63;5029080;28;20034;-75
2022/09/12 09:35:21;;;;;;;1.83;1.40;;;;;;;23.90;72.22;99954.41;4971622;28;20046;-79
2022/09/12 09:38:11;;;;;;;2.85;1.50;;;;;;;23.92;70.48;99960.53;4969902;28;20437;-75
2022/09/12 09:41:01;;;;;;;5.18;1.48;;;;;;;23.99;68.50;99951.56;4966961;28;20055;-78
2022/09/12 09:43:28;;;;;;;4.25;1.30;;;;;;;24.05;69.10;99953.16;4969862;28;20104;-72
2022/09/12 09:45:56;;;;;;;1.65;1.23;;;;;;;24.08;67.63;99939.06;4930341;28;20039;-77
2022/09/12 09:48:29;;;;;;;1.95;1.02;;;;;;;24.20;66.30;99955.41;4970720;28;20042;-77
2022/09/12 09:50:58;;;;;;;1.55;1.30;;;;;;;24.35;68.50;99959.38;4971830;28;20095;-74
2022/09/12 09:53:24;;;;;;;;;;;;;;;24.47;64.98;99952.88;4969605;28;20026;-77
2022/09/12 09:55:52;;;;;;;2.35;1.05;;;;;;;25.00;63.96;99954.00;4972032;28;20311;-74
2022/09/12 09:58:35;;;;;;;1.42;1.20;;;;;;;24.58;62.52;99920.03;4972395;28;20070;-76
2022/09/12 10:01:04;;;;;;;1.23;1.10;;;;;;;24.45;64.57;99944.16;4971524;28;20047;-72
2022/09/12 10:03:32;;;;;;;5.00;1.25;;;;;;;24.54;67.98;99958.84;4972222;28;20471;-71
2022/09/12 10:06:20;;;;;;;2.78;1.40;;;;;;;24.56;66.30;99949.09;4998650;28;20041;-76
2022/09/12 10:08:47;;;;;;;4.70;2.67;;;;;;;24.65;63.50;99955.91;5032949;28;20105;-77
2022/09/12 10:11:21;;;;;;;8.85;4.70;;;;;;;24.67;62.15;99951.47;5033096;28;20037;-78
2022/09/12 10:13:53;;;;;;;2.67;1.40;;;;;;;24.67;64.17;99948.81;5032954;28;20033;-74
2022/09/12 10:16:24;;;;;;;6.80;3.65;;;;;;;24.79;62.06;99944.97;5032828;28;20485;-77
2022/09/12 10:18:51;;;;;;;15.20;8.57;;;;;;;25.37;60.62;99946.69;5033335;28;20041;-81
2022/09/12 10:21:23;;;;;;;34.80;18.45;;;;;;;25.63;61.33;99951.09;5032476;28;20034;-76
2022/09/12 10:23:58;;;;;;;25.20;13.30;;;;;;;25.45;61.08;99955.25;5030250;28;20033;-77
2022/09/12 10:26:25;;;;;;;7.55;3.53;;;;;;;24.99;58.86;99952.25;5031118;28;20116;-75
2022/09/12 10:28:53;;;;;;;10.45;5.25;;;;;;;24.95;57.38;99925.09;5032455;28;20021;-79
2022/09/12 10:31:28;;;;;;;19.40;11.02;;;;;;;25.04;60.02;99953.84;5014949;28;20040;-80
2022/09/12 10:33:56;;;;;;;19.35;10.07;;;;;;;24.45;61.11;99957.34;5032573;28;20756;-76
2022/09/12 10:36:23;;;;;;;25.42;15.50;;;;;;;24.53;60.77;99946.56;5029794;28;20045;-77
2022/09/12 10:38:57;;;;;;;1.58;1.10;;;;;;;24.69;60.24;99949.66;5032390;28;20191;-78
2022/09/12 10:41:23;;;;;;;15.27;9.13;;;;;;;24.97;59.89;99943.50;5028026;28;20121;-79
2022/09/12 10:43:49;;;;;;;5.57;2.60;;;;;;;25.44;56.77;99942.94;5025270;28;20091;-78
2022/09/12 10:46:15;;;;;;;15.88;9.73;;;;;;;25.74;56.81;99932.25;5022394;28;20492;-78
2022/09/12 10:48:42;;;;;;;1.30;1.20;;;;;;;25.67;60.39;99942.16;5030124;28;20029;-80
2022/09/12 10:51:27;;;;;;;2.85;1.20;;;;;;;25.43;57.45;99931.50;5031527;28;20037;-79
2022/09/12 10:53:56;;;;;;;3.10;1.30;;;;;;;25.28;55.97;99946.03;5032342;28;20037;-81
2022/09/12 10:56:43;;;;;;;2.05;1.17;;;;;;;25.72;57.10;99931.41;5030747;28;20044;-75
2022/09/12 10:59:24;;;;;;;2.40;1.00;;;;;;;26.24;55.14;99926.94;4929691;29;20068;-77
2022/09/12 11:01:52;;;;;;;1.13;0.90;;;;;;;26.31;54.71;99941.69;4929723;29;20050;-77
2022/09/12 11:04:23;;;;;;;1.20;1.10;;;;;;;26.06;52.37;99941.72;4929671;29;20045;-76
2022/09/12 11:07:26;;;;;;;2.63;1.40;;;;;;;25.90;53.10;99935.22;4931892;29;20040;-73
2022/09/12 11:10:05;;;;;;;4.40;1.50;;;;;;;25.77;55.52;99918.91;4931368;29;20134;-78
2022/09/12 11:12:40;;;;;;;4.10;1.10;;;;;;;26.13;53.51;99931.78;4914612;29;20043;-75
2022/09/12 11:15:30;;;;;;;2.63;1.23;;;;;;;26.09;50.94;99919.59;4930013;29;20260;-77
2022/09/12 11:18:13;;;;;;;0.95;0.90;;;;;;;26.24;54.52;99874.03;4931003;29;20051;-77
2022/09/12 11:20:44;;;;;;;0.88;0.88;;;;;;;26.70;50.10;99904.97;4931531;29;20024;-82
2022/09/12 11:23:25;;;;;;;2.15;1.05;;;;;;;26.58;49.81;99887.75;4930738;29;20171;-76
2022/09/12 11:26:18;;;;;;;2.45;0.85;;;;;;;26.62;48.82;99908.75;4916927;29;20443;-76
2022/09/12 11:29:17;;;;;;;0.80;0.80;;;;;;;26.35;48.38;99905.38;4913306;29;20099;-75
2022/09/12 11:32:04;;;;;;;1.88;0.82;;;;;;;26.25;50.77;99899.56;4926075;29;20083;-73
2022/09/12 11:34:32;;;;;;;3.65;1.00;;;;;;;26.52;48.85;99896.81;4928255;29;20042;-76
2022/09/12 11:37:13;;;;;;;3.25;1.13;;;;;;;25.81;49.27;99896.75;5009195;28;20056;-78
2022/09/12 11:39:42;;;;;;;2.10;1.58;;;;;;;25.68;49.36;99893.66;5029624;28;20045;-77
2022/09/12 11:42:25;;;;;;;1.55;1.10;;;;;;;25.98;49.30;99878.50;4980571;28;20076;-77
2022/09/12 11:45:05;;;;;;;1.20;0.85;;;;;;;26.30;49.90;99872.94;5010534;28;20038;-74